createdAt,value
2023-01-17T11:39:28.624Z,-8.19
2023-01-17T11:44:33.197Z,-10.39
2023-01-17T11:49:37.079Z,-11.14
2023-01-17T11:54:45.089Z,-11.52
2023-01-17T11:59:48.850Z,-11.84
2023-01-17T12:05:01.865Z,-11.69
2023-01-17T12:10:10.724Z,-11.65
2023-01-17T12:15:23.198Z,-11.60
2023-01-17T12:20:34.465Z,-11.66
2023-01-17T12:25:48.636Z,-11.59
2023-01-17T12:30:58.758Z,-11.47
2023-01-17T12:36:04.066Z,-11.38
2023-01-17T12:41:13.408Z,-11.16
2023-01-17T12:46:24.272Z,-10.91
2023-01-17T12:51:31.342Z,-10.84
2023-01-17T12:56:38.464Z,-10.93
2023-01-17T13:01:45.281Z,-10.95
2023-01-17T13:07:02.560Z,-11.04
2023-01-17T13:12:11.325Z,-11.14
2023-01-17T13:17:24.951Z,-10.97
2023-01-17T13:22:31.761Z,-10.98
2023-01-17T13:27:45.250Z,-10.96
2023-01-17T13:33:01.596Z,-11.10
2023-01-17T13:38:22.907Z,-11.05
2023-01-17T13:43:29.611Z,-11.01
2023-01-17T13:48:33.887Z,-10.97
2023-01-17T13:53:56.275Z,-11.08
2023-01-17T13:59:19.659Z,-11.31
2023-01-17T14:04:24.901Z,-11.27
2023-01-17T14:09:31.378Z,-11.34
2023-01-17T14:14:46.330Z,-11.54
2023-01-17T14:19:52.264Z,-11.72
2023-01-17T14:24:58.240Z,-11.37
2023-01-17T14:30:02.783Z,-11.55
2023-01-17T14:35:21.584Z,-11.60
2023-01-17T14:40:30.821Z,-11.56
2023-01-17T14:45:35.169Z,-11.60
2023-01-17T14:50:41.057Z,-11.79
2023-01-17T14:55:51.752Z,-11.86
2023-01-17T15:01:21.327Z,-11.80
2023-01-17T15:06:29.054Z,-11.79
2023-01-17T15:11:34.838Z,-11.91
2023-01-17T15:16:54.334Z,-12.00
2023-01-17T15:22:01.790Z,-12.30
2023-01-17T15:27:06.220Z,-12.46
2023-01-17T15:32:17.022Z,-12.43
2023-01-17T15:37:28.398Z,-12.47
2023-01-17T15:42:32.435Z,-12.67
2023-01-17T15:47:37.974Z,-12.88
2023-01-17T15:52:50.218Z,-12.97
2023-01-17T15:57:53.684Z,-13.08
2023-01-17T16:02:59.414Z,-13.18
2023-01-17T16:08:21.621Z,-13.40
2023-01-17T16:13:26.473Z,-13.57
2023-01-17T16:18:29.995Z,-13.72
2023-01-17T16:23:33.425Z,-13.78
2023-01-17T16:28:38.313Z,-13.89
2023-01-17T16:33:43.091Z,-14.01
2023-01-17T16:38:53.482Z,-14.08
2023-01-17T16:44:02.908Z,-14.18
2023-01-17T16:49:09.130Z,-14.28
2023-01-17T16:54:12.483Z,-14.31
2023-01-17T16:59:17.675Z,-14.41
2023-01-17T17:04:21.145Z,-14.52
2023-01-17T17:09:24.756Z,-14.59
2023-01-17T17:14:29.711Z,-14.63
2023-01-17T17:19:33.599Z,-14.74
2023-01-17T17:24:39.527Z,-14.77
2023-01-17T17:29:44.460Z,-14.80
2023-01-17T17:34:51.036Z,-14.83
2023-01-17T17:39:54.430Z,-14.89
2023-01-17T17:44:59.193Z,-14.92
2023-01-17T17:50:04.911Z,-14.90
2023-01-17T17:55:08.571Z,-14.90
2023-01-17T18:00:14.366Z,-14.96
2023-01-17T18:05:17.956Z,-14.96
2023-01-17T18:10:21.386Z,-15.16
2023-01-17T18:15:26.232Z,-15.28
2023-01-17T18:20:29.863Z,-15.34
2023-01-17T18:25:36.534Z,-15.32
2023-01-17T18:30:41.448Z,-15.46
2023-01-17T18:35:54.120Z,-15.46
2023-01-17T18:41:02.958Z,-15.42
2023-01-17T18:46:08.553Z,-15.48
2023-01-17T18:51:13.072Z,-15.53
2023-01-17T18:56:18.014Z,-15.55
2023-01-17T19:01:23.789Z,-15.71
2023-01-17T19:06:28.872Z,-15.72
2023-01-17T19:11:36.427Z,-15.72
2023-01-17T19:16:52.923Z,-15.73
2023-01-17T19:21:56.894Z,-15.80
2023-01-17T19:27:00.931Z,-15.85
2023-01-17T19:32:09.695Z,-15.88
2023-01-17T19:37:14.448Z,-15.90
2023-01-17T19:42:18.109Z,-15.96
2023-01-17T19:47:22.921Z,-15.96
2023-01-17T19:52:26.304Z,-15.98
2023-01-17T19:57:34.695Z,-16.04
2023-01-17T20:02:39.956Z,-16.04
2023-01-17T20:07:43.483Z,-16.08
2023-01-17T20:12:47.003Z,-16.12
2023-01-17T20:17:51.781Z,-16.15
2023-01-17T20:22:55.519Z,-16.22
2023-01-17T20:27:59.234Z,-16.30
2023-01-17T20:33:04.435Z,-16.38
2023-01-17T20:38:10.474Z,-16.43
2023-01-17T20:43:14.169Z,-16.47
2023-01-17T20:48:20.798Z,-16.51
2023-01-17T20:53:24.327Z,-16.55
2023-01-17T20:58:27.967Z,-16.67
2023-01-17T21:03:34.356Z,-16.79
2023-01-17T21:08:38.559Z,-16.88
2023-01-17T21:13:44.528Z,-16.83
2023-01-17T21:18:50.010Z,-16.92
2023-01-17T21:23:57.279Z,-16.89
2023-01-17T21:29:08.143Z,-16.86
2023-01-17T21:34:13.638Z,-16.91
2023-01-17T21:39:25.058Z,-16.97
2023-01-17T21:44:35.829Z,-16.97
2023-01-17T21:49:41.013Z,-16.99
2023-01-17T21:55:01.843Z,-16.95
2023-01-17T22:00:06.390Z,-16.98
2023-01-17T22:05:18.037Z,-17.10
2023-01-17T22:10:21.477Z,-17.12
2023-01-17T22:15:25.175Z,-17.20
2023-01-17T22:20:29.955Z,-17.24
2023-01-17T22:25:35.868Z,-17.26
2023-01-17T22:30:39.259Z,-17.37
2023-01-17T22:36:14.606Z,-17.43
2023-01-17T22:41:21.271Z,-17.50
2023-01-17T22:46:25.505Z,-17.55
2023-01-17T22:51:30.610Z,-17.54
